Home > Products > Valid Products > TAF

000
FTUS45 KREV 301700
TAFRNO
TAF
KRNO 301738Z 3018/0118 VRB04KT P6SM SCT060 BKN200
     FM302100 34013KT P6SM SCT070 SCT200
     FM010400 02007KT P6SM SCT045
     FM011200 VRB03KT P6SM FEW050=



000
FTUS45 KREV 301700
TAFRNO
TAF
KRNO 301738Z 3018/0118 VRB04KT P6SM SCT060 BKN200
     FM302100 34013KT P6SM SCT070 SCT200
     FM010400 02007KT P6SM SCT045
     FM011200 VRB03KT P6SM FEW050=



000
FTUS45 KREV 301100
TAFRNO
TAF
KRNO 301129Z 3012/0112 VRB04KT P6SM SCT200
     FM302000 34013KT P6SM FEW070 SCT200
     FM010300 02008KT P6SM SKC=



000
FTUS45 KREV 301100
TAFRNO
TAF
KRNO 301129Z 3012/0112 VRB04KT P6SM SCT200
     FM302000 34013KT P6SM FEW070 SCT200
     FM010300 02008KT P6SM SKC=



000
FTUS45 KREV 300500
TAFRNO
TAF
KRNO 300535Z 3006/0106 32005KT P6SM SCT200
     FM302100 33013KT P6SM FEW070 SCT200
     FM010300 01008KT P6SM SKC=



000
FTUS45 KREV 300500
TAFRNO
TAF
KRNO 300535Z 3006/0106 32005KT P6SM SCT200
     FM302100 33013KT P6SM FEW070 SCT200
     FM010300 01008KT P6SM SKC=



000
FTUS45 KREV 292300
TAFRNO
TAF
KRNO 292326Z 3000/3024 35012KT P6SM FEW070
     FM300200 30010KT P6SM FEW070 SCT200
     FM300400 32005KT P6SM SCT200
     FM302100 33013KT P6SM FEW070 SCT200=



000
FTUS45 KREV 292300
TAFRNO
TAF
KRNO 292326Z 3000/3024 35012KT P6SM FEW070
     FM300200 30010KT P6SM FEW070 SCT200
     FM300400 32005KT P6SM SCT200
     FM302100 33013KT P6SM FEW070 SCT200=



000
FTUS45 KREV 292100 AAA
TAFRNO
TAF AMD
KRNO 292157Z 2922/3018 35012KT P6SM SCT070
     FM300000 30010KT P6SM FEW070 SCT200
     FM300400 32006KT P6SM SCT200=



000
FTUS45 KREV 292100 AAA
TAFRNO
TAF AMD
KRNO 292157Z 2922/3018 35012KT P6SM SCT070
     FM300000 30010KT P6SM FEW070 SCT200
     FM300400 32006KT P6SM SCT200=



000
FTUS45 KREV 291700
TAFRNO
TAF
KRNO 291726Z 2918/3018 35005KT P6SM FEW100 SCT200
     FM292100 30010KT P6SM FEW070 SCT200
     FM300400 32006KT P6SM SCT200=



000
FTUS45 KREV 291700
TAFRNO
TAF
KRNO 291726Z 2918/3018 35005KT P6SM FEW100 SCT200
     FM292100 30010KT P6SM FEW070 SCT200
     FM300400 32006KT P6SM SCT200=



000
FTUS45 KREV 291100
TAFRNO
TAF
KRNO 291124Z 2912/3012 VRB04KT P6SM FEW080 BKN200
     FM291700 35007KT P6SM FEW080 SCT200
     FM292100 30010KT P6SM FEW070 SCT200
     FM300400 32006KT P6SM SCT200=



000
FTUS45 KREV 291100
TAFRNO
TAF
KRNO 291124Z 2912/3012 VRB04KT P6SM FEW080 BKN200
     FM291700 35007KT P6SM FEW080 SCT200
     FM292100 30010KT P6SM FEW070 SCT200
     FM300400 32006KT P6SM SCT200=



000
FTUS45 KREV 290500
TAFRNO
TAF
KRNO 290520Z 2906/3006 VRB04KT P6SM SCT040 SCT100
     FM292000 29010KT P6SM FEW050 SCT200=



000
FTUS45 KREV 290500
TAFRNO
TAF
KRNO 290520Z 2906/3006 VRB04KT P6SM SCT040 SCT100
     FM292000 29010KT P6SM FEW050 SCT200=



000
FTUS45 KREV 282300
TAFRNO
TAF
KRNO 282324Z 2900/2924 35009KT P6SM VCSH SCT035 BKN060
     FM290400 VRB04KT P6SM SCT040 BKN100
     FM292000 29010KT P6SM FEW050 SCT200=



000
FTUS45 KREV 282300
TAFRNO
TAF
KRNO 282324Z 2900/2924 35009KT P6SM VCSH SCT035 BKN060
     FM290400 VRB04KT P6SM SCT040 BKN100
     FM292000 29010KT P6SM FEW050 SCT200=



000
FTUS45 KREV 281700
TAFRNO
TAF
KRNO 281732Z 2818/2918 VRB04KT P6SM -RA SCT010 OVC035
      TEMPO 2818/2820 5SM RA OVC025
     FM282100 35009KT P6SM VCSH SCT035 OVC060
     FM290400 VRB04KT P6SM SCT040 BKN080=



000
FTUS45 KREV 281700
TAFRNO
TAF
KRNO 281732Z 2818/2918 VRB04KT P6SM -RA SCT010 OVC035
      TEMPO 2818/2820 5SM RA OVC025
     FM282100 35009KT P6SM VCSH SCT035 OVC060
     FM290400 VRB04KT P6SM SCT040 BKN080=



000
FTUS45 KREV 281400 AAA
TAFRNO
TAF AMD
KRNO 281457Z 2815/2912 VRB04KT P6SM -SHRA SCT025 OVC040
     FM282100 35009KT P6SM VCSH SCT035 OVC060
     FM290400 VRB04KT P6SM SCT060 OVC080=



000
FTUS45 KREV 281400 AAA
TAFRNO
TAF AMD
KRNO 281457Z 2815/2912 VRB04KT P6SM -SHRA SCT025 OVC040
     FM282100 35009KT P6SM VCSH SCT035 OVC060
     FM290400 VRB04KT P6SM SCT060 OVC080=



000
FTUS45 KREV 281100
TAFRNO
TAF
KRNO 281123Z 2812/2912 VRB03KT P6SM VCSH SCT025 OVC040
      TEMPO 2812/2814 P6SM -SHRA BKN025
     FM281700 VRB04KT P6SM -SHRA BKN025 OVC040
     FM282100 35009KT P6SM VCSH SCT035 OVC060
     FM290400 VRB04KT P6SM SCT060 OVC080=



000
FTUS45 KREV 281100
TAFRNO
TAF
KRNO 281123Z 2812/2912 VRB03KT P6SM VCSH SCT025 OVC040
      TEMPO 2812/2814 P6SM -SHRA BKN025
     FM281700 VRB04KT P6SM -SHRA BKN025 OVC040
     FM282100 35009KT P6SM VCSH SCT035 OVC060
     FM290400 VRB04KT P6SM SCT060 OVC080=



000
FTUS45 KREV 280500
TAFRNO
TAF
KRNO 280520Z 2806/2906 VRB04KT P6SM VCSH SCT035 OVC060
     FM281500 VRB04KT 6SM -SHRA SCT020 OVC040
     FM282100 35006KT P6SM VCSH SCT035 OVC060
     FM290400 VRB04KT P6SM SCT060 OVC080=



000
FTUS45 KREV 272300
TAFRNO
TAF
KRNO 272321Z 2800/2824 33009KT 6SM -SHRA BKN035 OVC060
     FM280500 35006KT P6SM VCSH SCT035 OVC060=



    US Dept of Commerce
    National Oceanic and Atmospheric Administration
    National Weather Service
    1325 East West Highway
    Silver Spring, MD 20910
    Page Author: NWS Internet Services Team
Disclaimer
Information Quality
Credits
Glossary
Privacy Policy
Freedom of Information Act (FOIA)
About Us
Career Opportunities